createdAt,value
2019-04-25T00:00:08.826Z,977.53
2019-04-25T00:01:08.817Z,977.47
2019-04-25T00:02:08.746Z,977.51
2019-04-25T00:03:08.776Z,977.50
2019-04-25T00:04:08.754Z,977.52
2019-04-25T00:05:08.746Z,977.53
2019-04-25T00:06:08.800Z,977.54
2019-04-25T00:07:08.779Z,977.66
2019-04-25T00:08:08.752Z,977.67
2019-04-25T00:09:08.804Z,977.64
2019-04-25T00:10:08.771Z,977.66
2019-04-25T00:11:08.742Z,977.71
2019-04-25T00:12:08.797Z,977.66
2019-04-25T00:13:08.795Z,977.84
2019-04-25T00:14:08.800Z,977.52
2019-04-25T00:15:08.795Z,977.66
2019-04-25T00:16:08.748Z,977.58
2019-04-25T00:17:08.774Z,977.61
2019-04-25T00:18:08.838Z,977.58
2019-04-25T00:19:08.813Z,977.60
2019-04-25T00:20:08.766Z,977.62
2019-04-25T00:21:08.790Z,977.62
2019-04-25T00:22:08.768Z,977.54
2019-04-25T00:23:08.791Z,977.55
2019-04-25T00:24:08.794Z,977.54
2019-04-25T00:25:15.905Z,977.54
2019-04-25T00:26:08.774Z,977.53
2019-04-25T00:27:08.817Z,977.47
2019-04-25T00:28:08.793Z,977.54
2019-04-25T00:29:08.773Z,977.64
2019-04-25T00:30:08.778Z,977.51
2019-04-25T00:31:08.789Z,977.58
2019-04-25T00:32:08.778Z,977.65
2019-04-25T00:33:08.823Z,977.62
2019-04-25T00:34:08.791Z,977.57
2019-04-25T00:35:08.799Z,977.57
2019-04-25T00:36:08.803Z,977.63
2019-04-25T00:37:08.784Z,977.60
2019-04-25T00:38:08.795Z,977.42
2019-04-25T00:39:08.798Z,977.62
2019-04-25T00:40:08.816Z,977.63
2019-04-25T00:41:08.816Z,977.52
2019-04-25T00:42:08.821Z,977.57
2019-04-25T00:43:08.796Z,977.51
2019-04-25T00:44:08.812Z,977.49
2019-04-25T00:45:08.802Z,977.53
2019-04-25T00:46:08.823Z,977.54
2019-04-25T00:47:08.806Z,977.43
2019-04-25T00:48:08.829Z,977.55
2019-04-25T00:49:08.788Z,977.45
2019-04-25T00:50:08.811Z,977.64
2019-04-25T00:51:08.825Z,977.50
2019-04-25T00:52:08.786Z,977.50
2019-04-25T00:53:08.781Z,977.45
2019-04-25T00:54:08.822Z,977.48
2019-04-25T00:55:08.809Z,977.43
2019-04-25T00:56:08.820Z,977.47
2019-04-25T00:57:08.817Z,977.33
2019-04-25T00:58:08.804Z,977.35
2019-04-25T00:59:08.794Z,977.23
2019-04-25T01:00:08.824Z,977.17
2019-04-25T01:01:08.869Z,977.32
2019-04-25T01:02:08.818Z,977.21
2019-04-25T01:03:08.813Z,977.13
2019-04-25T01:04:08.854Z,977.13
2019-04-25T01:05:08.801Z,977.09
2019-04-25T01:06:08.837Z,977.18
2019-04-25T01:07:08.869Z,977.01
2019-04-25T01:08:08.808Z,977.03
2019-04-25T01:09:08.836Z,976.91
2019-04-25T01:10:08.815Z,976.85
2019-04-25T01:11:08.812Z,976.93
2019-04-25T01:12:08.833Z,977.00
2019-04-25T01:13:08.811Z,976.91
2019-04-25T01:14:08.823Z,976.90
2019-04-25T01:15:08.847Z,976.93
2019-04-25T01:16:08.795Z,976.91
2019-04-25T01:17:08.840Z,976.89
2019-04-25T01:18:08.832Z,976.87
2019-04-25T01:19:08.831Z,976.99
2019-04-25T01:20:08.824Z,976.88
2019-04-25T01:21:08.840Z,976.95
2019-04-25T01:22:08.867Z,977.01
2019-04-25T01:23:08.815Z,976.86
2019-04-25T01:24:08.860Z,977.09
2019-04-25T01:25:08.824Z,977.22
2019-04-25T01:26:08.836Z,977.15
2019-04-25T01:27:08.835Z,977.16
2019-04-25T01:28:08.811Z,977.26
2019-04-25T01:29:08.831Z,977.24
2019-04-25T01:30:08.871Z,977.31
2019-04-25T01:31:08.878Z,977.45
2019-04-25T01:32:08.824Z,977.39
2019-04-25T01:33:08.869Z,977.48
2019-04-25T01:34:08.819Z,977.36
2019-04-25T01:35:08.862Z,977.45
2019-04-25T01:36:08.865Z,977.51
2019-04-25T01:37:08.837Z,977.53
2019-04-25T01:38:08.842Z,977.50
2019-04-25T01:39:08.862Z,977.44
2019-04-25T01:40:08.861Z,977.53
2019-04-25T01:41:08.867Z,977.63
2019-04-25T01:42:08.865Z,977.63
2019-04-25T01:43:08.855Z,977.52
2019-04-25T01:44:08.835Z,977.57
2019-04-25T01:45:08.866Z,977.69
2019-04-25T01:46:08.867Z,977.61
2019-04-25T01:47:08.864Z,977.71
2019-04-25T01:48:08.874Z,977.68
2019-04-25T01:49:08.853Z,977.72
2019-04-25T01:50:08.846Z,977.80
2019-04-25T01:51:08.867Z,977.68
2019-04-25T01:52:08.854Z,977.71
2019-04-25T01:53:08.851Z,977.72
2019-04-25T01:54:08.862Z,977.75
2019-04-25T01:55:08.867Z,977.68
2019-04-25T01:56:08.858Z,977.76
2019-04-25T01:57:08.875Z,977.86
2019-04-25T01:58:08.861Z,977.75
2019-04-25T01:59:08.885Z,977.84
2019-04-25T02:00:08.884Z,977.81
2019-04-25T02:01:08.907Z,977.76
2019-04-25T02:02:08.862Z,977.84
2019-04-25T02:03:08.865Z,977.83
2019-04-25T02:04:08.863Z,977.72
2019-04-25T02:05:08.853Z,977.77
2019-04-25T02:06:08.872Z,977.74
2019-04-25T02:07:08.882Z,977.84
2019-04-25T02:08:08.861Z,977.86
2019-04-25T02:09:08.884Z,977.85
2019-04-25T02:10:08.881Z,977.86
2019-04-25T02:11:08.881Z,977.88
2019-04-25T02:12:08.885Z,977.95
2019-04-25T02:13:08.880Z,977.95
2019-04-25T02:14:08.865Z,977.82
2019-04-25T02:15:08.882Z,977.81
2019-04-25T02:16:08.923Z,977.89
2019-04-25T02:17:08.884Z,977.80
2019-04-25T02:18:08.895Z,977.77
2019-04-25T02:19:08.878Z,977.85
2019-04-25T02:20:08.889Z,977.77
2019-04-25T02:21:08.924Z,977.81
2019-04-25T02:22:08.875Z,977.88
2019-04-25T02:23:08.903Z,977.83
2019-04-25T02:24:08.897Z,977.81
2019-04-25T02:25:08.921Z,977.72
2019-04-25T02:26:15.721Z,977.71
2019-04-25T02:27:08.907Z,977.70
2019-04-25T02:28:08.904Z,977.68
2019-04-25T02:29:08.873Z,977.61
2019-04-25T02:30:08.927Z,977.63
2019-04-25T02:31:09.003Z,977.65
2019-04-25T02:32:09.226Z,977.55
2019-04-25T02:33:09.318Z,977.67
2019-04-25T02:34:08.929Z,977.65
2019-04-25T02:35:09.288Z,977.67
2019-04-25T02:36:09.025Z,977.66
2019-04-25T02:37:09.533Z,977.58
2019-04-25T02:38:09.105Z,977.55
2019-04-25T02:39:09.248Z,977.62
2019-04-25T02:40:09.223Z,977.51
2019-04-25T02:41:09.159Z,977.48
2019-04-25T02:42:08.966Z,977.47
2019-04-25T02:43:08.904Z,977.45
2019-04-25T02:44:10.173Z,977.44
2019-04-25T02:45:08.926Z,977.40
2019-04-25T02:46:08.901Z,977.51
2019-04-25T02:47:08.924Z,977.48
2019-04-25T02:48:08.897Z,977.44
2019-04-25T02:49:09.751Z,977.47
2019-04-25T02:50:09.137Z,977.55
2019-04-25T02:51:08.925Z,977.46
2019-04-25T02:52:12.782Z,977.57
2019-04-25T02:53:08.883Z,977.37
2019-04-25T02:54:08.910Z,977.43
2019-04-25T02:55:10.936Z,977.42
2019-04-25T02:56:27.481Z,977.49
2019-04-25T02:57:08.901Z,977.43
2019-04-25T02:58:10.202Z,977.43
2019-04-25T02:59:09.302Z,977.49
2019-04-25T03:00:08.965Z,977.47
2019-04-25T03:01:18.155Z,977.46
2019-04-25T03:02:09.305Z,977.46
2019-04-25T03:03:08.935Z,977.48
2019-04-25T03:04:11.297Z,977.43
2019-04-25T03:05:09.950Z,977.48
2019-04-25T03:06:09.681Z,977.42
2019-04-25T03:07:11.286Z,977.44
2019-04-25T03:08:10.636Z,977.41
2019-04-25T03:09:09.788Z,977.43
2019-04-25T03:10:09.786Z,977.46
2019-04-25T03:11:09.394Z,977.37
2019-04-25T03:12:09.436Z,977.36
2019-04-25T03:13:11.720Z,977.36
2019-04-25T03:14:10.130Z,977.39
2019-04-25T03:15:10.234Z,977.35
2019-04-25T03:16:10.909Z,977.26
2019-04-25T03:17:09.982Z,977.31
2019-04-25T03:18:12.260Z,977.15
2019-04-25T03:19:09.391Z,977.30
2019-04-25T03:20:11.238Z,977.29
2019-04-25T03:21:13.460Z,977.24
2019-04-25T03:22:11.177Z,977.29
2019-04-25T03:23:09.495Z,977.37
2019-04-25T03:24:12.792Z,977.29
2019-04-25T03:25:13.338Z,977.36
2019-04-25T03:26:09.175Z,977.34
2019-04-25T03:27:09.164Z,977.27
2019-04-25T03:28:09.269Z,977.32
2019-04-25T03:29:09.367Z,977.34
2019-04-25T03:30:13.265Z,977.34
2019-04-25T03:31:13.337Z,977.39
2019-04-25T03:32:13.348Z,977.34
2019-04-25T03:33:13.545Z,977.29
2019-04-25T03:34:13.780Z,977.32
2019-04-25T03:35:08.952Z,977.28
2019-04-25T03:36:09.358Z,977.28
2019-04-25T03:37:09.456Z,977.25
2019-04-25T03:38:08.957Z,977.20
2019-04-25T03:39:08.976Z,977.24
2019-04-25T03:40:09.630Z,977.35
2019-04-25T03:41:08.952Z,977.27
2019-04-25T03:42:09.859Z,977.24
2019-04-25T03:43:08.966Z,977.37
2019-04-25T03:44:08.963Z,977.30
2019-04-25T03:45:09.249Z,977.33
2019-04-25T03:46:08.965Z,977.34
2019-04-25T03:47:09.758Z,977.29
2019-04-25T03:48:09.547Z,977.40
2019-04-25T03:49:09.693Z,977.38
2019-04-25T03:50:09.820Z,977.35
2019-04-25T03:51:08.956Z,977.32
2019-04-25T03:52:08.954Z,977.37
2019-04-25T03:53:08.975Z,977.40
2019-04-25T03:54:10.318Z,977.41
2019-04-25T03:55:08.951Z,977.37
2019-04-25T03:56:08.954Z,977.41
2019-04-25T03:57:08.942Z,977.32
2019-04-25T03:58:10.658Z,977.43
2019-04-25T03:59:08.957Z,977.41
2019-04-25T04:00:08.996Z,977.48
2019-04-25T04:01:09.564Z,977.45
2019-04-25T04:02:09.126Z,977.38
2019-04-25T04:03:09.117Z,977.52
2019-04-25T04:04:09.107Z,977.53
2019-04-25T04:05:09.586Z,977.53
2019-04-25T04:06:09.785Z,977.51
2019-04-25T04:07:10.765Z,977.47
2019-04-25T04:08:09.696Z,977.56
2019-04-25T04:09:09.801Z,977.48
2019-04-25T04:10:09.938Z,977.62
2019-04-25T04:11:10.044Z,977.54
2019-04-25T04:12:08.979Z,977.53
2019-04-25T04:13:08.952Z,977.46
2019-04-25T04:14:08.979Z,977.58
2019-04-25T04:15:08.989Z,977.58
2019-04-25T04:16:08.988Z,977.53
2019-04-25T04:17:09.004Z,977.44
2019-04-25T04:18:09.011Z,977.56
2019-04-25T04:19:08.967Z,977.52
2019-04-25T04:20:08.979Z,977.50
2019-04-25T04:21:09.018Z,977.54
2019-04-25T04:22:09.072Z,977.43
2019-04-25T04:23:09.232Z,977.50
2019-04-25T04:24:09.606Z,977.65
2019-04-25T04:25:09.546Z,977.59
2019-04-25T04:26:09.541Z,977.73
2019-04-25T04:27:09.533Z,977.64
2019-04-25T04:28:09.736Z,977.64
2019-04-25T04:29:08.977Z,977.77
2019-04-25T04:30:09.008Z,977.63
2019-04-25T04:31:08.979Z,977.89
2019-04-25T04:32:08.974Z,977.77
2019-04-25T04:33:09.011Z,977.85
2019-04-25T04:34:09.004Z,977.81
2019-04-25T04:35:09.033Z,977.72
2019-04-25T04:36:09.037Z,977.75
2019-04-25T04:37:09.039Z,977.73
2019-04-25T04:38:09.594Z,977.80
2019-04-25T04:39:09.923Z,977.83
2019-04-25T04:40:09.620Z,977.68
2019-04-25T04:41:09.719Z,977.92
2019-04-25T04:42:09.642Z,977.89
2019-04-25T04:43:09.618Z,977.77
2019-04-25T04:44:09.991Z,977.88
2019-04-25T04:45:10.202Z,977.85
2019-04-25T04:46:10.119Z,977.94
2019-04-25T04:47:09.948Z,977.92
2019-04-25T04:48:09.185Z,977.96
2019-04-25T04:49:09.219Z,977.99
2019-04-25T04:50:09.221Z,977.95
2019-04-25T04:51:09.225Z,977.86
2019-04-25T04:52:09.341Z,978.00
2019-04-25T04:53:09.282Z,977.94
2019-04-25T04:54:09.507Z,978.02
2019-04-25T04:55:11.253Z,977.99
2019-04-25T04:56:09.671Z,977.86
2019-04-25T04:57:23.493Z,977.92
2019-04-25T04:58:09.282Z,977.93
2019-04-25T04:59:10.823Z,977.91
2019-04-25T05:00:10.934Z,977.91
2019-04-25T05:01:09.263Z,977.86
2019-04-25T05:02:09.228Z,978.00
2019-04-25T05:03:09.264Z,977.92
2019-04-25T05:04:09.238Z,977.91
2019-04-25T05:05:09.252Z,977.89
2019-04-25T05:06:09.294Z,977.90
2019-04-25T05:07:09.299Z,977.94
2019-04-25T05:08:10.236Z,977.93
2019-04-25T05:09:09.262Z,977.95
2019-04-25T05:10:09.250Z,977.96
2019-04-25T05:11:09.260Z,977.95
2019-04-25T05:12:09.291Z,978.00
2019-04-25T05:13:09.302Z,977.99
2019-04-25T05:14:09.251Z,977.97
2019-04-25T05:15:09.297Z,978.03
2019-04-25T05:16:09.307Z,977.97
2019-04-25T05:17:09.281Z,978.00
2019-04-25T05:18:09.278Z,978.05
2019-04-25T05:19:09.314Z,978.03
2019-04-25T05:20:09.263Z,977.99
2019-04-25T05:21:09.286Z,978.12
2019-04-25T05:22:09.268Z,978.10
2019-04-25T05:23:09.296Z,978.10
2019-04-25T05:24:09.283Z,978.10
2019-04-25T05:25:09.281Z,978.07
2019-04-25T05:26:09.273Z,978.07
2019-04-25T05:27:09.297Z,978.08
2019-04-25T05:28:09.271Z,978.05
2019-04-25T05:29:09.285Z,978.12
2019-04-25T05:30:09.288Z,977.81
2019-04-25T05:31:09.323Z,977.99
2019-04-25T05:32:09.279Z,977.92
2019-04-25T05:33:09.285Z,977.91
2019-04-25T05:34:09.314Z,978.02
2019-04-25T05:35:09.292Z,978.01
2019-04-25T05:36:09.296Z,977.92
2019-04-25T05:37:09.272Z,977.96
2019-04-25T05:38:09.291Z,977.98
2019-04-25T05:39:09.282Z,977.90
2019-04-25T05:40:09.291Z,977.89
2019-04-25T05:41:09.273Z,977.94
2019-04-25T05:42:09.301Z,977.98
2019-04-25T05:43:09.280Z,977.82
2019-04-25T05:44:09.287Z,977.94
2019-04-25T05:45:09.320Z,977.98
2019-04-25T05:46:09.284Z,977.95
2019-04-25T05:47:09.292Z,977.96
2019-04-25T05:48:09.315Z,978.06
2019-04-25T05:49:09.283Z,977.92
2019-04-25T05:50:09.284Z,977.99
2019-04-25T05:51:09.335Z,978.01
2019-04-25T05:52:09.281Z,977.89
2019-04-25T05:53:09.291Z,978.04
2019-04-25T05:54:09.301Z,978.03
2019-04-25T05:55:09.286Z,977.96
2019-04-25T05:56:09.327Z,978.08
2019-04-25T05:57:09.315Z,978.17
2019-04-25T05:58:09.280Z,977.96
2019-04-25T05:59:09.289Z,978.05
2019-04-25T06:00:09.307Z,978.13
2019-04-25T06:01:09.329Z,977.94
2019-04-25T06:02:09.306Z,978.08
2019-04-25T06:03:09.345Z,978.02
2019-04-25T06:04:09.292Z,978.12
2019-04-25T06:05:09.305Z,978.19
2019-04-25T06:06:09.329Z,978.19
2019-04-25T06:07:09.355Z,978.21
2019-04-25T06:08:09.329Z,978.25
2019-04-25T06:09:09.357Z,978.23
2019-04-25T06:10:09.365Z,978.28
2019-04-25T06:11:09.320Z,978.25
2019-04-25T06:12:09.325Z,978.21
2019-04-25T06:13:09.296Z,978.21
2019-04-25T06:14:09.334Z,978.31
2019-04-25T06:15:09.346Z,978.34
2019-04-25T06:16:09.336Z,978.27
2019-04-25T06:17:09.326Z,978.23
2019-04-25T06:18:09.337Z,978.32
2019-04-25T06:19:14.159Z,978.38
2019-04-25T06:20:09.344Z,978.34
2019-04-25T06:21:09.338Z,978.40
2019-04-25T06:22:09.350Z,978.37
2019-04-25T06:23:09.329Z,978.40
2019-04-25T06:24:09.328Z,978.44
2019-04-25T06:25:12.864Z,978.39
2019-04-25T06:26:23.003Z,978.44
2019-04-25T06:27:09.349Z,978.50
2019-04-25T06:28:09.311Z,978.36
2019-04-25T06:29:09.325Z,978.49
2019-04-25T06:30:09.356Z,978.58
2019-04-25T06:31:10.413Z,978.39
2019-04-25T06:32:09.356Z,978.60
2019-04-25T06:33:09.353Z,978.50
2019-04-25T06:34:09.318Z,978.53
2019-04-25T06:35:09.317Z,978.57
2019-04-25T06:36:09.331Z,978.56
2019-04-25T06:37:09.342Z,978.59
2019-04-25T06:38:09.345Z,978.53
2019-04-25T06:39:09.359Z,978.52
2019-04-25T06:40:09.334Z,978.51
2019-04-25T06:41:09.332Z,978.55
2019-04-25T06:42:09.387Z,978.49
2019-04-25T06:43:09.387Z,978.48
2019-04-25T06:44:09.320Z,978.64
2019-04-25T06:45:09.358Z,978.54
2019-04-25T06:46:09.323Z,978.48
2019-04-25T06:47:09.346Z,978.59
2019-04-25T06:48:09.387Z,978.63
2019-04-25T06:49:09.346Z,978.62
2019-04-25T06:50:09.349Z,978.58
2019-04-25T06:51:09.344Z,978.73
2019-04-25T06:52:09.367Z,978.70
2019-04-25T06:53:09.357Z,978.68
2019-04-25T06:54:09.367Z,978.74
2019-04-25T06:55:09.333Z,978.82
2019-04-25T06:56:09.345Z,978.73
2019-04-25T06:57:09.369Z,978.66
2019-04-25T06:58:12.171Z,978.80
2019-04-25T06:59:09.364Z,978.77
2019-04-25T07:00:09.396Z,978.78
2019-04-25T07:01:09.358Z,978.71
2019-04-25T07:02:09.382Z,978.67
2019-04-25T07:03:09.373Z,978.66
2019-04-25T07:04:09.360Z,978.84
2019-04-25T07:05:09.378Z,978.80
2019-04-25T07:06:09.395Z,978.77
2019-04-25T07:07:12.005Z,978.86
2019-04-25T07:08:09.366Z,978.83
2019-04-25T07:09:09.401Z,978.75
2019-04-25T07:10:09.351Z,978.88
2019-04-25T07:11:09.377Z,978.78
2019-04-25T07:12:09.393Z,978.82
2019-04-25T07:13:09.410Z,978.85
2019-04-25T07:14:09.375Z,978.82
2019-04-25T07:15:09.392Z,978.88
2019-04-25T07:16:09.419Z,978.86
2019-04-25T07:17:09.384Z,978.92
2019-04-25T07:18:09.377Z,978.83
2019-04-25T07:19:09.362Z,978.91
2019-04-25T07:20:09.391Z,978.95
2019-04-25T07:21:09.404Z,978.92
2019-04-25T07:22:09.402Z,978.92
2019-04-25T07:23:09.393Z,979.01
2019-04-25T07:24:09.397Z,979.00
2019-04-25T07:25:09.431Z,978.98
2019-04-25T07:26:09.400Z,978.96
2019-04-25T07:27:09.411Z,978.84
2019-04-25T07:28:16.400Z,978.85
2019-04-25T07:29:09.375Z,978.94
2019-04-25T07:30:09.424Z,978.85
2019-04-25T07:31:09.366Z,978.94
2019-04-25T07:32:09.367Z,979.02
2019-04-25T07:33:09.415Z,978.93
2019-04-25T07:34:09.379Z,979.06
2019-04-25T07:35:09.403Z,978.97
2019-04-25T07:36:09.414Z,978.98
2019-04-25T07:37:09.399Z,979.05
2019-04-25T07:38:09.386Z,978.94
2019-04-25T07:39:10.670Z,978.92
2019-04-25T07:40:09.371Z,978.87
2019-04-25T07:41:09.409Z,978.91
2019-04-25T07:42:09.406Z,978.95
2019-04-25T07:43:09.401Z,979.05
2019-04-25T07:44:09.439Z,978.91
2019-04-25T07:45:09.445Z,978.90
2019-04-25T07:46:09.431Z,978.98
2019-04-25T07:47:09.416Z,978.86
2019-04-25T07:48:09.421Z,978.84
2019-04-25T07:49:09.406Z,978.88
2019-04-25T07:50:09.415Z,978.88
2019-04-25T07:51:09.434Z,978.92
2019-04-25T07:52:11.480Z,978.89
2019-04-25T07:53:09.405Z,978.89
2019-04-25T07:54:09.419Z,979.03
2019-04-25T07:55:09.407Z,978.84
2019-04-25T07:56:09.421Z,978.86
2019-04-25T07:57:09.433Z,978.91
2019-04-25T07:58:09.430Z,979.00
2019-04-25T07:59:09.395Z,978.90
2019-04-25T08:00:09.437Z,978.94
2019-04-25T08:01:09.417Z,978.90
2019-04-25T08:02:09.423Z,978.84
2019-04-25T08:03:09.429Z,978.92
2019-04-25T08:04:09.408Z,978.75
2019-04-25T08:05:09.419Z,978.92
2019-04-25T08:06:09.452Z,978.91
2019-04-25T08:07:09.454Z,978.94
2019-04-25T08:08:09.435Z,979.06
2019-04-25T08:09:09.441Z,979.00
2019-04-25T08:10:09.461Z,978.95
2019-04-25T08:11:09.463Z,978.97
2019-04-25T08:12:09.469Z,978.93
2019-04-25T08:13:09.416Z,978.93
2019-04-25T08:14:09.425Z,978.94
2019-04-25T08:15:09.462Z,978.93
2019-04-25T08:16:09.407Z,979.07
2019-04-25T08:17:09.448Z,979.09
2019-04-25T08:18:09.443Z,978.98
2019-04-25T08:19:09.422Z,979.05
2019-04-25T08:20:09.417Z,979.07
2019-04-25T08:21:09.455Z,979.16
2019-04-25T08:22:09.465Z,979.11
2019-04-25T08:23:09.436Z,979.12
2019-04-25T08:24:09.449Z,979.14
2019-04-25T08:25:09.429Z,979.12
2019-04-25T08:26:09.435Z,979.12
2019-04-25T08:27:09.484Z,979.18
2019-04-25T08:28:09.410Z,979.16
2019-04-25T08:29:09.437Z,979.30
2019-04-25T08:30:09.428Z,979.22
2019-04-25T08:31:09.440Z,979.30
2019-04-25T08:32:09.458Z,979.21
2019-04-25T08:33:09.457Z,979.25
2019-04-25T08:34:09.440Z,979.24
2019-04-25T08:35:09.439Z,979.14
2019-04-25T08:36:09.509Z,979.14
2019-04-25T08:37:18.076Z,979.14
2019-04-25T08:38:09.472Z,979.27
2019-04-25T08:39:09.463Z,979.23
2019-04-25T08:40:09.424Z,979.24
2019-04-25T08:41:09.459Z,979.28
2019-04-25T08:42:09.490Z,979.13
2019-04-25T08:43:09.459Z,979.21
2019-04-25T08:44:09.477Z,979.27
2019-04-25T08:45:09.485Z,979.18
2019-04-25T08:46:09.435Z,979.28
2019-04-25T08:47:09.448Z,979.19
2019-04-25T08:48:09.477Z,979.28
2019-04-25T08:49:09.471Z,979.32
2019-04-25T08:50:09.482Z,979.46
2019-04-25T08:51:09.494Z,979.32
2019-04-25T08:52:09.461Z,979.24
2019-04-25T08:53:09.456Z,979.28
2019-04-25T08:54:09.485Z,979.44
2019-04-25T08:55:09.455Z,979.44
2019-04-25T08:56:09.462Z,979.49
2019-04-25T08:57:09.489Z,979.44
2019-04-25T08:58:09.453Z,979.42
2019-04-25T08:59:09.496Z,979.35
2019-04-25T09:00:09.518Z,979.30
2019-04-25T09:01:09.513Z,979.34
2019-04-25T09:02:09.468Z,979.30
2019-04-25T09:03:09.477Z,979.31
2019-04-25T09:04:09.458Z,979.27
2019-04-25T09:05:09.487Z,979.31
2019-04-25T09:06:09.498Z,979.32
2019-04-25T09:07:09.457Z,979.38
2019-04-25T09:08:09.467Z,979.27
2019-04-25T09:09:09.492Z,979.36
2019-04-25T09:10:09.505Z,979.41
2019-04-25T09:11:09.496Z,979.34
2019-04-25T09:12:09.505Z,979.25
2019-04-25T09:13:09.529Z,979.24
2019-04-25T09:14:09.501Z,979.37
2019-04-25T09:15:09.499Z,979.37
2019-04-25T09:16:09.525Z,979.37
2019-04-25T09:17:09.476Z,979.41
2019-04-25T09:18:09.479Z,979.28
2019-04-25T09:19:09.480Z,979.32
2019-04-25T09:20:09.512Z,979.38
2019-04-25T09:21:09.516Z,979.24
2019-04-25T09:22:09.522Z,979.30
2019-04-25T09:23:09.498Z,979.43
2019-04-25T09:24:09.521Z,979.27
2019-04-25T09:25:09.524Z,979.28
2019-04-25T09:26:09.521Z,979.30
2019-04-25T09:27:09.513Z,979.26
2019-04-25T09:28:09.531Z,979.33
2019-04-25T09:29:18.740Z,979.35
2019-04-25T09:30:09.515Z,979.27
2019-04-25T09:31:09.533Z,979.25
2019-04-25T09:32:09.496Z,979.33
2019-04-25T09:33:09.513Z,979.19
2019-04-25T09:34:09.510Z,979.23
2019-04-25T09:35:09.517Z,979.27
2019-04-25T09:36:09.532Z,979.25
2019-04-25T09:37:09.497Z,979.27
2019-04-25T09:38:09.517Z,979.17
2019-04-25T09:39:09.499Z,979.07
2019-04-25T09:40:09.553Z,979.24
2019-04-25T09:41:09.521Z,979.07
2019-04-25T09:42:09.567Z,979.27
2019-04-25T09:43:09.501Z,979.22
2019-04-25T09:44:09.493Z,979.08
2019-04-25T09:45:09.555Z,979.19
2019-04-25T09:46:09.499Z,979.20
2019-04-25T09:47:09.539Z,979.12
2019-04-25T09:48:09.535Z,979.18
2019-04-25T09:49:09.500Z,979.20
2019-04-25T09:50:09.522Z,979.12
2019-04-25T09:51:09.526Z,979.16
2019-04-25T09:52:09.521Z,979.17
2019-04-25T09:53:20.996Z,979.11
2019-04-25T09:54:09.551Z,979.08
2019-04-25T09:55:09.518Z,979.10
2019-04-25T09:56:09.559Z,979.05
2019-04-25T09:57:09.530Z,978.99
2019-04-25T09:58:09.518Z,979.08
2019-04-25T09:59:09.535Z,979.04
2019-04-25T10:00:09.554Z,979.00
2019-04-25T10:01:09.515Z,979.06
2019-04-25T10:02:09.564Z,978.93
2019-04-25T10:03:09.559Z,979.05
2019-04-25T10:04:09.532Z,978.99
2019-04-25T10:05:09.541Z,979.01
2019-04-25T10:06:09.570Z,979.03
2019-04-25T10:07:09.520Z,978.99
2019-04-25T10:08:09.692Z,978.94
2019-04-25T10:09:09.561Z,978.88
2019-04-25T10:10:09.536Z,978.96
2019-04-25T10:11:11.271Z,978.97
2019-04-25T10:12:09.565Z,978.91
2019-04-25T10:13:09.544Z,978.93
2019-04-25T10:14:09.565Z,978.85
2019-04-25T10:15:09.645Z,978.99
2019-04-25T10:16:09.535Z,978.84
2019-04-25T10:17:09.542Z,978.87
2019-04-25T10:18:09.568Z,978.83
2019-04-25T10:19:09.560Z,978.82
2019-04-25T10:20:09.589Z,978.84
2019-04-25T10:21:09.575Z,978.82
2019-04-25T10:22:09.547Z,978.75
2019-04-25T10:23:09.572Z,978.97
2019-04-25T10:24:09.817Z,978.86
2019-04-25T10:25:09.610Z,978.84
2019-04-25T10:26:09.585Z,978.89
2019-04-25T10:27:09.573Z,978.81
2019-04-25T10:28:09.567Z,978.75
2019-04-25T10:29:09.564Z,978.72
2019-04-25T10:30:17.850Z,978.73
2019-04-25T10:31:09.578Z,978.90
2019-04-25T10:32:09.561Z,978.90
2019-04-25T10:33:09.588Z,978.84
2019-04-25T10:34:09.615Z,979.01
2019-04-25T10:35:09.548Z,978.79
2019-04-25T10:36:09.606Z,978.78
2019-04-25T10:37:09.629Z,978.74
2019-04-25T10:38:09.578Z,978.76
2019-04-25T10:39:11.184Z,978.78
2019-04-25T10:40:09.557Z,978.59
2019-04-25T10:41:09.614Z,978.88
2019-04-25T10:42:09.607Z,978.79
2019-04-25T10:43:09.633Z,978.82
2019-04-25T10:44:09.572Z,978.76
2019-04-25T10:45:20.481Z,978.73
2019-04-25T10:46:09.615Z,978.74
2019-04-25T10:47:09.605Z,978.97
2019-04-25T10:48:09.593Z,978.66
2019-04-25T10:49:09.625Z,978.67
2019-04-25T10:50:09.578Z,978.67
2019-04-25T10:51:09.603Z,978.68
2019-04-25T10:52:09.599Z,978.74
2019-04-25T10:53:09.619Z,978.65
2019-04-25T10:54:09.617Z,978.68
2019-04-25T10:55:09.592Z,978.66
2019-04-25T10:56:09.591Z,978.68
2019-04-25T10:57:09.609Z,978.64
2019-04-25T10:58:09.607Z,978.58
2019-04-25T10:59:09.614Z,978.61
2019-04-25T11:00:09.767Z,978.66
2019-04-25T11:01:09.594Z,978.56
2019-04-25T11:02:09.599Z,978.59
2019-04-25T11:03:09.612Z,978.53
2019-04-25T11:04:09.619Z,978.32
2019-04-25T11:05:09.626Z,978.69
2019-04-25T11:06:09.630Z,978.70
2019-04-25T11:07:09.643Z,978.58
2019-04-25T11:08:09.624Z,978.66
2019-04-25T11:09:09.623Z,978.72
2019-04-25T11:10:09.669Z,978.48
2019-04-25T11:11:09.593Z,978.59
2019-04-25T11:12:09.620Z,978.50
2019-04-25T11:13:09.596Z,978.49
2019-04-25T11:14:09.622Z,978.54
2019-04-25T11:15:09.655Z,978.52
2019-04-25T11:16:09.620Z,978.57
2019-04-25T11:17:09.606Z,978.49
2019-04-25T11:18:09.642Z,978.48
2019-04-25T11:19:09.659Z,978.50
2019-04-25T11:20:09.608Z,978.57
2019-04-25T11:21:09.661Z,978.57
2019-04-25T11:22:09.682Z,978.57
2019-04-25T11:23:09.628Z,978.53
2019-04-25T11:24:09.628Z,978.51
2019-04-25T11:25:09.670Z,978.48
2019-04-25T11:26:09.673Z,978.43
2019-04-25T11:27:09.636Z,978.46
2019-04-25T11:28:09.654Z,978.47
2019-04-25T11:29:09.640Z,978.62
2019-04-25T11:30:11.506Z,978.31
2019-04-25T11:31:09.678Z,978.50
2019-04-25T11:32:09.645Z,978.47
2019-04-25T11:33:09.651Z,978.41
2019-04-25T11:34:10.634Z,978.46
2019-04-25T11:35:09.640Z,978.34
2019-04-25T11:36:09.666Z,978.36
2019-04-25T11:37:09.639Z,978.43
2019-04-25T11:38:09.668Z,978.35
2019-04-25T11:39:09.671Z,978.42
2019-04-25T11:40:09.688Z,978.42
2019-04-25T11:41:09.632Z,978.27
2019-04-25T11:42:09.672Z,978.32
2019-04-25T11:43:09.722Z,978.28
2019-04-25T11:44:09.659Z,978.30
2019-04-25T11:45:09.649Z,978.23
2019-04-25T11:46:09.644Z,978.27
2019-04-25T11:47:09.669Z,978.40
2019-04-25T11:48:09.692Z,978.19
2019-04-25T11:49:09.688Z,978.31
2019-04-25T11:50:09.656Z,978.22
2019-04-25T11:51:09.670Z,978.27
2019-04-25T11:52:09.641Z,978.12
2019-04-25T11:53:09.666Z,978.21
2019-04-25T11:54:09.686Z,978.19
2019-04-25T11:55:09.697Z,978.12
2019-04-25T11:56:09.673Z,978.30
2019-04-25T11:57:09.686Z,978.25
2019-04-25T11:58:09.661Z,978.35
2019-04-25T11:59:09.692Z,978.39
2019-04-25T12:00:21.493Z,978.22
2019-04-25T12:01:09.658Z,978.35
2019-04-25T12:02:09.691Z,978.37
2019-04-25T12:03:09.712Z,978.33
2019-04-25T12:04:09.669Z,978.16
2019-04-25T12:05:09.676Z,978.18
2019-04-25T12:06:11.255Z,978.09
2019-04-25T12:07:09.673Z,978.09
2019-04-25T12:08:09.984Z,978.12
2019-04-25T12:09:09.698Z,978.09
2019-04-25T12:10:09.725Z,978.04
2019-04-25T12:11:09.699Z,977.86
2019-04-25T12:12:09.755Z,978.15
2019-04-25T12:13:09.700Z,978.00
2019-04-25T12:14:09.704Z,977.86
2019-04-25T12:15:09.697Z,977.89
2019-04-25T12:16:09.670Z,977.87
2019-04-25T12:17:09.693Z,977.81
2019-04-25T12:18:09.710Z,977.81
2019-04-25T12:19:09.768Z,977.99
2019-04-25T12:20:09.700Z,978.07
2019-04-25T12:21:09.711Z,977.96
2019-04-25T12:22:09.671Z,977.88
2019-04-25T12:23:10.578Z,978.02
2019-04-25T12:24:09.730Z,978.01
2019-04-25T12:25:09.713Z,977.84
2019-04-25T12:26:09.700Z,977.75
2019-04-25T12:27:09.711Z,977.67
2019-04-25T12:28:09.691Z,977.89